Time;durP1;ratioP1;P1;durP2;ratioP2;P2;SDS_P1;SDS_P2;PMS_P1;PMS_P2;Temp;Humidity;BMP_temperature;BMP_pressure;BME280_temperature;BME280_humidity;BME280_pressure;Samples;Min_cycle;Max_cycle;Signal;HPM_P1;HPM_P2
2023/07/01 00:00:41;;;;;;;;;;;21.10;89.10;;;21.27;51.27;98247.00;5011100;28;118714;-76
2023/07/01 00:03:08;;;;;;;;;;;21.10;89.10;;;21.22;51.50;98238.94;5024434;28;124846;-76
2023/07/01 00:05:34;;;;;;;;;;;21.00;89.00;;;21.15;51.18;98237.75;5025320;27;123897;-76
2023/07/01 00:08:00;;;;;;;;;;;21.00;89.00;;;21.11;51.29;98242.53;5025659;27;119548;-76
2023/07/01 00:10:27;;;;;;;;;;;20.90;88.90;;;21.06;51.53;98239.31;5026958;27;119045;-76
2023/07/01 00:12:53;;;;;;;;;;;20.90;88.80;;;21.01;51.59;98245.31;5024736;27;124558;-76
2023/07/01 00:15:19;;;;;;;;;;;20.90;88.90;;;20.95;51.30;98237.28;5026294;27;123833;-76
2023/07/01 00:17:48;;;;;;;;;;;20.80;88.80;;;20.92;51.40;98240.06;5026329;27;119426;-76
2023/07/01 00:20:16;;;;;;;;;;;20.80;88.80;;;20.87;51.21;98241.25;5028654;27;118946;-76
2023/07/01 00:22:45;;;;;;;;;;;20.70;88.80;;;20.85;51.46;98240.06;5024044;27;124304;-76
2023/07/01 00:25:12;;;;;;;;;;;20.70;88.90;;;20.84;51.61;98241.22;5013527;27;123746;-76
2023/07/01 00:27:38;;;;;;;;;;;20.70;88.80;;;20.82;51.76;98238.00;5014287;27;119606;-76
2023/07/01 00:30:05;;;;;;;;;;;20.70;88.70;;;20.80;51.49;98238.41;5015330;27;117916;-76
2023/07/01 00:32:33;;;;;;;;;;;20.70;88.70;;;20.81;51.21;98242.03;5026514;27;123649;-76
2023/07/01 00:35:00;;;;;;;;;;;20.70;88.50;;;20.78;51.38;98232.38;5028057;27;123673;-76
2023/07/01 00:37:27;;;;;;;;;;;20.60;88.30;;;20.74;51.33;98240.00;5024207;27;120828;-78
2023/07/01 00:39:53;;;;;;;;;;;20.60;88.20;;;20.70;51.26;98228.75;5023763;28;120462;-76
2023/07/01 00:42:22;;;;;;;;;;;20.60;88.20;;;20.67;51.27;98242.78;5016611;27;123678;-76
2023/07/01 00:44:48;;;;;;;;;;;20.50;88.10;;;20.64;51.25;98235.94;5021445;27;123941;-76
2023/07/01 00:47:17;;;;;;;;;;;20.50;88.10;;;20.61;50.79;98230.31;5010370;27;119126;-76
2023/07/01 00:49:46;;;;;;;;;;;20.50;88.10;;;20.58;50.95;98220.69;5021578;27;118647;-76
2023/07/01 00:52:12;;;;;;;;;;;20.50;88.00;;;20.56;51.06;98231.50;5026778;27;124051;-77
2023/07/01 00:54:39;;;;;;;;;;;20.40;88.00;;;20.55;51.22;98232.66;5024246;27;123501;-76
2023/07/01 00:57:08;;;;;;;;;;;20.40;87.90;;;20.50;51.13;98225.41;5012610;27;118966;-76
2023/07/01 00:59:34;;;;;;;;;;;20.40;87.80;;;20.48;51.05;98238.22;5028481;27;117928;-76
2023/07/01 01:02:05;;;;;;;;;;;20.40;87.80;;;20.42;50.98;98222.97;5013932;27;124270;-78
2023/07/01 01:04:44;;;;;;;;;;;20.30;87.80;;;20.37;51.31;98226.16;5012329;28;123180;-78
2023/07/01 01:07:37;;;;;;;;;;;20.30;87.90;;;20.32;51.42;98220.91;5026865;27;119308;-76
2023/07/01 01:10:15;;;;;;;;;;;20.20;87.90;;;20.30;51.21;98230.50;5007131;27;118986;-77
2023/07/01 01:12:44;;;;;;;;;;;20.20;88.10;;;20.30;51.54;98230.50;5015723;27;123883;-79
2023/07/01 01:15:11;;;;;;;;;;;20.20;88.10;;;20.29;51.35;98225.31;5026188;27;124063;-79
2023/07/01 01:17:39;;;;;;;;;;;20.10;88.00;;;20.26;51.46;98221.28;5026343;27;119398;-76
2023/07/01 01:20:13;;;;;;;;;;;20.10;88.00;;;20.24;51.40;98228.47;5027872;27;118690;-77
2023/07/01 01:22:51;;;;;;;;;;;20.10;88.10;;;20.22;51.49;98228.84;5009075;27;124255;-77
2023/07/01 01:25:27;;;;;;;;;;;20.10;88.20;;;20.19;51.38;98229.63;5020816;27;122777;-78
2023/07/01 01:28:00;;;;;;;;;;;20.10;88.30;;;20.14;51.92;98232.00;5021502;27;120217;-76
2023/07/01 01:30:33;;;;;;;;;;;20.00;88.40;;;20.08;51.59;98229.56;5026019;27;119024;-79
2023/07/01 01:33:00;;;;;;;;;;;20.00;88.50;;;20.04;52.29;98222.31;5029178;27;123519;-78
2023/07/01 01:35:26;;;;;;;;;;;19.90;88.70;;;20.00;52.18;98233.50;5024913;27;123872;-78
2023/07/01 01:38:04;;;;;;;;;;;19.90;88.90;;;19.98;52.60;98229.47;5011870;27;119498;-77
2023/07/01 01:40:35;;;;;;;;;;;19.80;89.20;;;19.95;52.51;98230.28;5007865;28;118875;-76
2023/07/01 01:43:08;;;;;;;;;;;19.80;89.50;;;19.90;53.14;98227.81;5023598;27;124551;-80
2023/07/01 01:45:37;;;;;;;;;;;19.80;89.90;;;19.84;53.58;98230.97;5029331;27;122727;-80
2023/07/01 01:48:04;;;;;;;;;;;19.70;90.10;;;19.78;53.60;98220.53;5013772;28;118700;-77
2023/07/01 01:50:34;;;;;;;;;;;19.70;90.20;;;19.73;53.77;98226.50;5007675;28;117666;-78
2023/07/01 01:53:03;;;;;;;;;;;19.60;90.40;;;19.66;54.10;98230.03;5016338;27;123946;-80
2023/07/01 01:55:30;;;;;;;;;;;19.50;90.50;;;19.62;54.54;98224.38;5028301;27;123518;-81
2023/07/01 01:57:58;;;;;;;;;;;19.50;90.70;;;19.59;54.38;98224.34;5005813;27;118547;-81
2023/07/01 02:00:25;;;;;;;;;;;19.40;90.80;;;19.57;54.32;98218.31;5021597;27;118573;-77
2023/07/01 02:02:51;;;;;;;;;;;19.40;90.90;;;19.55;54.47;98218.69;5014784;27;124730;-77
2023/07/01 02:05:18;;;;;;;;;;;19.40;91.00;;;19.54;54.73;98219.91;5013197;27;124430;-77
2023/07/01 02:07:44;;;;;;;;;;;19.40;91.00;;;19.52;54.99;98219.47;5025163;27;120136;-78
2023/07/01 02:10:12;;;;;;;;;;;19.40;91.10;;;19.50;55.18;98221.03;5026813;27;119408;-77
2023/07/01 02:12:38;;;;;;;;;;;19.40;91.20;;;19.48;55.31;98212.22;5026864;28;124347;-78
2023/07/01 02:15:05;;;;;;;;;;;19.30;91.30;;;19.48;55.27;98215.00;5029303;27;123974;-78
2023/07/01 02:17:31;;;;;;;;;;;19.30;91.40;;;19.47;55.38;98210.63;5029000;27;119524;-80
2023/07/01 02:20:00;;;;;;;;;;;19.30;91.50;;;19.45;55.76;98208.22;5029472;28;118482;-80
2023/07/01 02:22:26;;;;;;;;;;;19.30;91.50;;;19.45;55.30;98207.38;5005913;27;123033;-78
2023/07/01 02:24:53;;;;;;;;;;;19.30;91.50;;;19.44;55.33;98206.59;5018843;27;124609;-82
2023/07/01 02:27:19;;;;;;;;;;;19.30;91.60;;;19.43;55.57;98211.38;5016080;27;120045;-82
2023/07/01 02:29:47;;;;;;;;;;;19.30;91.60;;;19.42;55.39;98201.38;5019930;28;119412;-79
2023/07/01 02:32:13;;;;;;;;;;;19.30;91.60;;;19.43;55.32;98199.38;5013062;27;124561;-79
2023/07/01 02:34:42;;;;;;;;;;;19.30;91.60;;;19.45;55.44;98198.97;5027354;27;123035;-81
2023/07/01 02:37:08;;;;;;;;;;;19.30;91.70;;;19.44;55.36;98206.59;5030602;28;119150;-81
2023/07/01 02:39:34;;;;;;;;;;;19.30;91.70;;;19.42;55.26;98204.19;5026166;27;118700;-81
2023/07/01 02:42:01;;;;;;;;;;;19.30;91.70;;;19.44;55.27;98198.19;5017782;28;124191;-82
2023/07/01 02:44:27;;;;;;;;;;;19.30;91.70;;;19.43;55.33;98210.59;5020830;27;124375;-80
2023/07/01 02:46:53;;;;;;;;;;;19.30;91.70;;;19.41;55.29;98208.16;5029058;27;119378;-80
2023/07/01 02:49:20;;;;;;;;;;;19.20;91.60;;;19.39;55.51;98204.94;5031085;27;120044;-80
2023/07/01 02:51:46;;;;;;;;;;;19.20;91.70;;;19.37;55.40;98207.34;5026018;27;126608;-79
2023/07/01 02:54:15;;;;;;;;;;;19.20;91.70;;;19.36;55.40;98205.72;5025777;27;124273;-80
2023/07/01 02:56:41;;;;;;;;;;;19.20;91.70;;;19.34;55.51;98205.31;5020920;27;119446;-81
2023/07/01 02:59:07;;;;;;;;;;;19.20;91.80;;;19.34;55.65;98205.31;5027155;27;118780;-79
2023/07/01 03:01:34;;;;;;;;;;;19.20;91.80;;;19.32;55.70;98204.88;5025296;27;123928;-78
2023/07/01 03:04:00;;;;;;;;;;;19.20;91.80;;;19.29;55.55;98202.88;5025165;27;123951;-82
2023/07/01 03:06:26;;;;;;;;;;;19.10;91.90;;;19.25;55.97;98210.41;5021770;27;120149;-81
2023/07/01 03:08:52;;;;;;;;;;;19.10;91.90;;;19.23;55.88;98218.38;5029526;27;119629;-82
2023/07/01 03:11:19;;;;;;;;;;;19.00;92.00;;;19.21;56.14;98209.59;5025644;27;124527;-82
2023/07/01 03:13:45;;;;;;;;;;;19.00;92.00;;;19.18;56.23;98204.72;5024938;27;124038;-81
2023/07/01 03:16:11;;;;;;;;;;;19.00;92.20;;;19.16;56.53;98207.13;5025325;27;119630;-78
2023/07/01 03:18:37;;;;;;;;;;;19.00;92.30;;;19.13;56.58;98216.31;5015045;27;117795;-80
2023/07/01 03:21:04;;;;;;;;;;;18.90;92.40;;;19.09;56.93;98215.44;5029601;27;124162;-79
2023/07/01 03:23:30;;;;;;;;;;;18.90;92.50;;;19.05;56.86;98217.38;5042535;27;124022;-80
2023/07/01 03:25:59;;;;;;;;;;;18.80;92.60;;;19.00;57.00;98214.97;5025904;28;117752;-80
2023/07/01 03:28:28;;;;;;;;;;;18.80;92.70;;;18.96;57.11;98218.50;5038250;27;118454;-82
2023/07/01 03:30:54;;;;;;;;;;;18.80;92.80;;;18.93;57.17;98219.25;5017992;27;124251;-81
2023/07/01 03:33:20;;;;;;;;;;;18.70;92.80;;;18.91;57.17;98221.66;5012020;27;122768;-79
2023/07/01 03:35:47;;;;;;;;;;;18.70;92.90;;;18.88;57.76;98208.41;5024331;27;119497;-80
2023/07/01 03:38:13;;;;;;;;;;;18.70;93.00;;;18.84;57.56;98210.38;5026676;27;119163;-82
2023/07/01 03:40:53;;;;;;;;;;;18.70;93.00;;;18.86;57.71;98209.97;5016736;28;97101;-82
2023/07/01 03:43:22;;;;;;;;;;;18.70;93.10;;;18.86;57.75;98216.41;5040414;27;107053;-81
2023/07/01 03:45:48;;;;;;;;;;;18.60;93.10;;;18.87;57.65;98211.59;4998800;28;123735;-82
2023/07/01 03:48:14;;;;;;;;;;;18.60;93.20;;;18.89;57.77;98212.84;5007923;28;123880;-82
2023/07/01 03:50:40;;;;;;;;;;;18.70;93.20;;;18.92;57.92;98209.28;5009989;28;106501;-82
2023/07/01 03:53:07;;;;;;;;;;;18.60;93.30;;;18.95;57.70;98213.31;5006841;28;107047;-81
2023/07/01 03:55:33;;;;;;;;;;;18.70;93.30;;;19.02;57.71;98209.75;5025581;27;123201;-78
2023/07/01 03:57:59;;;;;;;;;;;18.70;93.40;;;19.05;57.67;98211.78;5006469;28;124032;-78
2023/07/01 04:00:33;;;;;;;;;;;18.70;93.40;;;19.05;57.45;98211.78;5003058;28;107423;-79
2023/07/01 04:03:08;;;;;;;;;;;18.70;93.40;;;19.04;57.65;98212.97;5006744;28;106871;-79
2023/07/01 04:05:35;;;;;;;;;;;18.70;93.40;;;19.04;57.57;98208.19;5007032;28;124272;-82
2023/07/01 04:08:02;;;;;;;;;;;18.70;93.40;;;19.09;57.36;98207.03;5007492;28;123983;-78
2023/07/01 04:10:28;;;;;;;;;;;18.80;93.40;;;19.10;57.47;98208.66;4992137;28;106674;-82
2023/07/01 04:12:55;;;;;;;;;;;18.80;93.40;;;19.09;57.32;98204.25;5018284;28;106448;-82
2023/07/01 04:15:24;;;;;;;;;;;18.70;93.30;;;19.04;57.46;98210.97;5008672;28;123775;-81
2023/07/01 04:17:50;;;;;;;;;;;18.70;93.30;;;19.01;57.55;98205.34;5005013;28;122963;-79
2023/07/01 04:20:19;;;;;;;;;;;18.80;93.30;;;19.00;57.67;98212.16;5038493;27;107767;-77
2023/07/01 04:22:48;;;;;;;;;;;18.70;93.30;;;18.97;57.35;98216.53;5026006;27;106010;-81
2023/07/01 04:25:14;;;;;;;;;;;18.70;93.30;;;18.95;57.39;98205.69;5007124;28;123884;-78
2023/07/01 04:27:43;;;;;;;;;;;18.70;93.30;;;18.96;57.63;98210.09;5004554;28;123293;-79
2023/07/01 04:30:12;;;;;;;;;;;18.70;93.30;;;18.98;57.60;98206.94;5007568;28;107794;-78
2023/07/01 04:32:38;;;;;;;;;;;18.70;93.30;;;19.00;57.65;98209.34;5008672;28;107047;-78
2023/07/01 04:35:07;;;;;;;;;;;18.70;93.30;;;19.02;57.53;98213.38;5005877;28;124157;-78
2023/07/01 04:37:33;;;;;;;;;;;18.70;93.30;;;19.02;57.51;98207.78;5005081;28;124135;-78
2023/07/01 04:40:00;;;;;;;;;;;18.80;93.30;;;19.01;57.25;98211.75;5007074;28;107466;-79
2023/07/01 04:42:26;;;;;;;;;;;18.70;93.30;;;18.98;57.49;98207.72;5006439;28;106974;-77
2023/07/01 04:44:55;;;;;;;;;;;18.70;93.30;;;18.93;57.50;98205.28;5005223;28;124085;-81
2023/07/01 04:47:24;;;;;;;;;;;18.70;93.40;;;18.92;57.83;98203.66;5002336;28;123786;-79
2023/07/01 04:49:52;;;;;;;;;;;18.70;93.40;;;18.89;57.73;98210.03;4996164;28;107414;-78
2023/07/01 04:52:25;;;;;;;;;;;18.70;93.50;;;18.87;57.84;98203.22;4992501;28;106997;-80
2023/07/01 04:54:52;;;;;;;;;;;18.60;93.40;;;18.85;57.78;98205.56;4991726;28;124846;-77
2023/07/01 04:57:18;;;;;;;;;;;18.60;93.50;;;18.85;57.83;98195.19;4988980;28;123976;-81
2023/07/01 04:59:44;;;;;;;;;;;18.60;93.50;;;18.85;57.75;98200.78;4984221;28;107580;-79
2023/07/01 05:02:11;;;;;;;;;;;18.60;93.50;;;18.87;57.81;98198.41;4991190;28;108098;-80
2023/07/01 05:04:37;;;;;;;;;;;18.60;93.50;;;18.90;57.95;98199.63;4986588;28;124333;-78
2023/07/01 05:07:07;;;;;;;;;;;18.60;93.50;;;18.93;57.90;98199.66;4992125;28;124589;-80
2023/07/01 05:09:36;;;;;;;;;;;18.70;93.60;;;18.94;57.68;98192.91;4992868;28;107296;-79
2023/07/01 05:12:02;;;;;;;;;;;18.70;93.60;;;18.95;57.58;98208.50;4992809;28;106212;-79
2023/07/01 05:14:29;;;;;;;;;;;18.60;93.50;;;18.98;57.36;98207.72;5000889;28;124868;-78
2023/07/01 05:16:55;;;;;;;;;;;18.70;93.50;;;19.03;57.37;98205.78;4988275;28;123162;-79
2023/07/01 05:19:21;;;;;;;;;;;18.70;93.40;;;19.06;57.17;98207.81;4990740;28;107431;-83
2023/07/01 05:21:49;;;;;;;;;;;18.70;93.40;;;19.08;57.12;98197.03;4991464;28;107388;-79
2023/07/01 05:24:21;;;;;;;;;;;18.70;93.40;;;19.12;56.93;98195.06;4975979;28;125769;-78
2023/07/01 05:26:49;;;;;;;;;;;18.80;93.40;;;19.14;56.97;98198.31;4990342;28;124308;-81
2023/07/01 05:29:17;;;;;;;;;;;18.80;93.30;;;19.17;56.72;98197.53;4990689;28;107470;-78
2023/07/01 05:31:43;;;;;;;;;;;18.80;93.20;;;19.19;56.71;98201.56;4990943;28;107075;-79
2023/07/01 05:34:09;;;;;;;;;;;18.80;93.20;;;19.25;56.53;98192.81;4991574;28;124243;-78
2023/07/01 05:36:37;;;;;;;;;;;18.90;93.10;;;19.31;56.27;98202.47;4993658;28;123714;-79
2023/07/01 05:39:03;;;;;;;;;;;18.90;93.00;;;19.37;56.26;98196.13;4993046;28;107777;-78
2023/07/01 05:41:30;;;;;;;;;;;18.90;92.90;;;19.44;55.69;98189.78;4995396;28;107192;-78
2023/07/01 05:43:57;;;;;;;;;;;19.10;92.70;;;19.51;55.32;98194.66;4990335;28;124152;-78
2023/07/01 05:46:23;;;;;;;;;;;19.10;92.60;;;19.56;54.57;98185.91;4990893;28;122921;-78
2023/07/01 05:48:49;;;;;;;;;;;19.20;92.40;;;19.62;54.67;98190.75;4990985;28;107636;-78
2023/07/01 05:51:15;;;;;;;;;;;19.20;92.20;;;19.71;54.11;98198.03;4992818;28;106004;-78
2023/07/01 05:53:44;;;;;;;;;;;19.30;91.90;;;19.77;53.23;98190.88;4988073;28;124635;-78
2023/07/01 05:56:11;;;;;;;;;;;19.30;91.50;;;19.83;53.18;98190.13;4988746;28;123854;-81
2023/07/01 05:58:37;;;;;;;;;;;19.40;91.40;;;19.92;52.93;98186.19;4984361;28;107740;-79
2023/07/01 06:01:03;;;;;;;;;;;19.50;91.20;;;20.02;52.31;98193.88;4991736;28;105982;-76
2023/07/01 06:03:29;;;;;;;;;;;19.50;90.90;;;20.09;51.50;98185.50;4983202;28;124038;-77
2023/07/01 06:05:55;;;;;;;;;;;19.60;90.50;;;20.12;51.27;98181.91;4984490;28;124601;-77
2023/07/01 06:08:22;;;;;;;;;;;19.60;90.20;;;20.17;51.51;98184.34;4977635;28;106618;-78
2023/07/01 06:10:48;;;;;;;;;;;19.70;90.20;;;20.24;50.99;98192.81;4987401;28;107454;-77
2023/07/01 06:13:14;;;;;;;;;;;19.80;90.10;;;20.30;50.43;98194.03;4988867;28;124468;-76
2023/07/01 06:15:40;;;;;;;;;;;19.80;89.40;;;20.38;50.19;98196.88;4987408;28;123671;-78
2023/07/01 06:18:09;;;;;;;;;;;19.90;89.30;;;20.43;49.73;98193.72;4990993;28;108432;-76
2023/07/01 06:20:35;;;;;;;;;;;20.00;88.70;;;20.49;49.65;98181.69;4993545;28;106212;-77
2023/07/01 06:23:01;;;;;;;;;;;20.00;87.90;;;20.55;49.35;98176.53;4989291;28;124209;-76
2023/07/01 06:25:30;;;;;;;;;;;20.10;87.50;;;20.62;48.73;98178.59;4980052;28;124069;-77
2023/07/01 06:27:59;;;;;;;;;;;20.20;87.20;;;20.70;48.20;98183.81;4991456;28;107117;-77
2023/07/01 06:30:25;;;;;;;;;;;20.30;86.30;;;20.78;48.09;98176.25;4986544;28;106966;-76
2023/07/01 06:32:54;;;;;;;;;;;20.30;86.00;;;20.88;47.50;98171.88;4989413;28;124707;-77
2023/07/01 06:35:22;;;;;;;;;;;20.40;85.50;;;20.98;46.92;98185.09;4992380;28;124338;-76
2023/07/01 06:37:49;;;;;;;;;;;20.40;84.40;;;21.06;46.53;98185.94;4990018;28;107673;-78
2023/07/01 06:40:15;;;;;;;;;;;20.60;84.00;;;21.14;46.36;98185.56;4973685;28;105982;-77
2023/07/01 06:42:41;;;;;;;;;;;20.60;83.60;;;21.22;46.06;98177.13;4990435;28;124069;-78
2023/07/01 06:45:08;;;;;;;;;;;20.70;83.10;;;21.28;45.48;98172.72;4984613;28;124085;-77
2023/07/01 06:47:34;;;;;;;;;;;20.80;82.20;;;21.35;45.02;98179.16;4984919;28;106953;-77
2023/07/01 06:50:00;;;;;;;;;;;20.80;81.50;;;21.40;44.94;98175.19;4989093;28;107200;-76
2023/07/01 06:52:26;;;;;;;;;;;20.90;80.90;;;21.42;44.09;98175.59;4990867;28;124805;-76
2023/07/01 06:54:53;;;;;;;;;;;20.90;79.30;;;21.42;44.26;98177.63;4990042;28;123811;-76
2023/07/01 06:57:21;;;;;;;;;;;21.00;79.10;;;21.47;44.12;98166.78;4986811;28;108088;-78
2023/07/01 06:59:48;;;;;;;;;;;21.00;79.30;;;21.55;43.34;98168.38;4979131;28;107067;-75
2023/07/01 07:02:14;;;;;;;;;;;21.10;78.30;;;21.60;43.39;98165.16;4989338;28;124279;-76
2023/07/01 07:04:40;;;;;;;;;;;21.10;77.50;;;21.67;42.94;98174.78;4990728;28;124430;-75
2023/07/01 07:07:07;;;;;;;;;;;21.20;77.50;;;21.72;43.02;98161.13;4992099;28;107591;-76
2023/07/01 07:09:33;;;;;;;;;;;21.20;77.00;;;21.80;42.64;98168.34;4989590;28;107115;-76
2023/07/01 07:11:59;;;;;;;;;;;21.30;76.50;;;21.88;42.46;98160.72;4989696;28;124096;-76
2023/07/01 07:14:25;;;;;;;;;;;21.40;76.20;;;21.95;42.11;98160.72;4987175;28;123908;-77
2023/07/01 07:16:52;;;;;;;;;;;21.40;76.00;;;22.00;42.02;98165.94;4971424;28;108672;-77
2023/07/01 07:19:19;;;;;;;;;;;21.50;75.50;;;22.08;42.44;98157.47;4993715;28;106204;-77
2023/07/01 07:21:45;;;;;;;;;;;21.60;76.10;;;22.18;42.70;98151.00;4974700;28;123153;-77
2023/07/01 07:24:12;;;;;;;;;;;21.70;76.60;;;22.32;42.41;98141.75;4981572;28;124536;-77
2023/07/01 07:26:42;;;;;;;;;;;21.80;76.60;;;22.45;41.61;98140.09;4981201;28;108252;-77
2023/07/01 07:29:08;;;;;;;;;;;21.90;75.60;;;22.56;41.49;98140.06;4984780;28;107328;-78
2023/07/01 07:31:34;;;;;;;;;;;22.00;74.70;;;22.66;41.19;98147.66;4991716;28;123955;-79
2023/07/01 07:34:01;;;;;;;;;;;22.10;74.70;;;22.72;40.32;98137.56;4989597;28;124001;-77
2023/07/01 07:36:28;;;;;;;;;;;22.20;73.30;;;22.77;40.04;98133.50;4996719;28;107765;-76
2023/07/01 07:38:54;;;;;;;;;;;22.20;72.30;;;22.82;40.13;98130.28;4987913;28;106893;-76
2023/07/01 07:41:20;;;;;;;;;;;22.30;72.30;;;22.87;40.43;98127.81;4988363;28;123211;-76
2023/07/01 07:43:46;;;;;;;;;;;22.30;72.40;;;23.00;40.19;98130.16;4987291;28;124668;-77
2023/07/01 07:46:13;;;;;;;;;;;22.40;72.30;;;23.11;39.96;98128.13;4983182;28;109359;-81
2023/07/01 07:48:39;;;;;;;;;;;22.50;71.90;;;23.16;39.89;98133.31;4991069;28;108616;-82
2023/07/01 07:51:05;;;;;;;;;;;22.60;71.70;;;23.22;39.50;98131.66;4989636;28;124384;-82
2023/07/01 07:53:31;;;;;;;;;;;22.70;71.20;;;23.27;39.21;98139.66;4983603;28;123407;-82
2023/07/01 07:55:58;;;;;;;;;;;22.70;70.40;;;23.26;38.48;98131.63;4987782;28;109852;-82
2023/07/01 07:58:24;;;;;;;;;;;22.70;69.50;;;23.25;38.52;98135.66;4982186;28;109460;-82
2023/07/01 08:00:50;;;;;;;;;;;22.80;69.00;;;23.21;38.66;98121.56;4977578;28;123591;-81
2023/07/01 08:03:19;;;;;;;;;;;22.70;68.80;;;23.19;38.88;98117.59;4981393;28;123893;-82
2023/07/01 08:05:45;;;;;;;;;;;22.80;69.20;;;23.21;39.28;98112.31;5003325;28;109257;-82
2023/07/01 08:08:11;;;;;;;;;;;22.80;69.20;;;23.22;39.10;98113.94;4988027;28;108717;-82
2023/07/01 08:10:43;;;;;;;;;;;22.80;69.00;;;23.21;39.18;98113.13;4983775;28;124064;-82
2023/07/01 08:13:10;;;;;;;;;;;22.80;69.20;;;23.21;39.47;98118.75;4985343;28;123781;-82
2023/07/01 08:15:36;;;;;;;;;;;22.80;69.60;;;23.23;39.41;98110.69;4987201;28;111529;-81
2023/07/01 08:18:05;;;;;;;;;;;22.80;69.80;;;23.24;39.79;98109.50;4989099;28;109557;-81
2023/07/01 08:20:31;;;;;;;;;;;22.80;69.90;;;23.27;40.01;98102.22;4989812;28;124199;-81
2023/07/01 08:22:57;;;;;;;;;;;22.90;71.00;;;23.32;40.04;98098.94;4974615;28;123060;-81
2023/07/01 08:25:24;;;;;;;;;;;22.90;70.40;;;23.38;39.70;98106.56;4982601;28;109223;-82
2023/07/01 08:27:52;;;;;;;;;;;23.00;70.80;;;23.45;39.94;98099.25;4992957;28;108729;-81
2023/07/01 08:30:18;;;;;;;;;;;23.00;70.60;;;23.48;39.13;98115.31;4981843;28;123898;-81
2023/07/01 08:32:45;;;;;;;;;;;23.10;69.40;;;23.49;39.17;98091.56;4994438;28;123831;-81
2023/07/01 08:35:13;;;;;;;;;;;23.00;69.10;;;23.53;39.07;98103.59;4989264;28;109219;-81
2023/07/01 08:37:40;;;;;;;;;;;23.10;69.10;;;23.53;38.94;98097.97;4991871;28;108386;-82
2023/07/01 08:40:07;;;;;;;;;;;23.10;68.90;;;23.53;38.66;98112.06;4989944;28;124198;-82
2023/07/01 08:42:45;;;;;;;;;;;23.10;68.20;;;23.52;38.70;98104.81;4992393;28;122469;-82
2023/07/01 08:45:11;;;;;;;;;;;23.10;68.00;;;23.53;39.05;98086.69;4995352;28;110589;-74
2023/07/01 08:47:38;;;;;;;;;;;23.10;68.70;;;23.61;39.38;98082.56;4994672;28;109810;-76
2023/07/01 08:50:08;;;;;;;;;;;23.20;69.10;;;23.71;38.96;98073.25;4984503;28;124250;-76
2023/07/01 08:52:46;;;;;;;;;;;23.20;69.00;;;23.81;39.48;98077.97;4993799;28;123890;-75
2023/07/01 08:55:13;;;;;;;;;;;23.30;69.60;;;23.96;39.11;98072.16;4986153;28;109917;-73
2023/07/01 08:57:40;;;;;;;;;;;23.50;69.40;;;24.08;38.94;98079.31;4991095;28;108799;-74
2023/07/01 09:00:07;;;;;;;;;;;23.50;69.10;;;24.15;36.85;98074.38;4992543;28;123630;-75
2023/07/01 09:02:37;;;;;;;;;;;23.60;66.20;;;24.13;36.30;98059.88;4991496;28;123015;-74
2023/07/01 09:05:04;;;;;;;;;;;23.60;64.40;;;24.09;36.12;98055.50;4990335;28;109003;-74
2023/07/01 09:07:30;;;;;;;;;;;23.60;64.00;;;24.09;36.35;98053.47;4992650;28;107552;-74
2023/07/01 09:09:59;;;;;;;;;;;23.60;64.20;;;24.17;36.60;98054.19;4992447;28;124153;-75
2023/07/01 09:12:31;;;;;;;;;;;23.70;64.50;;;24.20;36.23;98065.44;4990688;28;123106;-75
2023/07/01 09:15:00;;;;;;;;;;;23.70;63.90;;;24.16;36.14;98050.56;4991225;28;109531;-75
2023/07/01 09:17:28;;;;;;;;;;;23.70;63.30;;;24.16;36.27;98049.78;4990651;28;107902;-75
2023/07/01 09:19:57;;;;;;;;;;;23.70;63.20;;;24.17;36.55;98043.69;4991886;28;124394;-74
2023/07/01 09:22:23;;;;;;;;;;;23.70;63.50;;;24.20;36.22;98051.31;4989825;28;124140;-74
2023/07/01 09:24:49;;;;;;;;;;;23.80;63.50;;;24.20;35.45;98056.97;4989034;28;109156;-74
2023/07/01 09:27:16;;;;;;;;;;;23.80;62.00;;;24.20;35.21;98053.34;4992661;28;108577;-74
2023/07/01 09:29:44;;;;;;;;;;;23.80;61.40;;;24.21;35.57;98069.88;4983912;28;125326;-74
2023/07/01 09:32:10;;;;;;;;;;;23.80;61.60;;;24.24;34.77;98043.63;4993643;28;123473;-73
2023/07/01 09:34:57;;;;;;;;;;;23.80;60.50;;;24.24;34.39;98048.47;4989778;28;110905;-73
2023/07/01 09:37:28;;;;;;;;;;;23.80;60.00;;;24.21;34.38;98032.38;4990353;28;109736;-75
2023/07/01 09:39:56;;;;;;;;;;;23.70;59.70;;;24.17;33.99;98035.22;4991392;28;124854;-75
2023/07/01 09:42:22;;;;;;;;;;;23.70;58.90;;;24.16;33.32;98030.81;4984200;28;124519;-75
2023/07/01 09:45:08;;;;;;;;;;;23.70;57.60;;;24.16;32.51;98035.66;4990245;28;109236;-74
2023/07/01 09:47:34;;;;;;;;;;;23.70;56.20;;;24.16;31.88;98059.03;4986693;28;108807;-74
2023/07/01 09:50:02;;;;;;;;;;;23.70;54.80;;;24.14;31.27;98027.59;4988639;28;124125;-81
2023/07/01 09:52:34;;;;;;;;;;;23.70;54.00;;;24.17;31.19;98021.13;4988095;28;124027;-78
2023/07/01 09:55:03;;;;;;;;;;;23.80;53.60;;;24.21;30.75;98033.16;4984965;28;110198;-78
2023/07/01 09:57:30;;;;;;;;;;;23.80;53.00;;;24.20;30.89;98039.22;4985323;28;108632;-79
2023/07/01 09:59:57;;;;;;;;;;;23.80;52.60;;;24.16;30.58;98018.72;4983581;28;124236;-80
2023/07/01 10:02:26;;;;;;;;;;;23.70;52.40;;;24.17;30.71;98025.97;4974324;28;125803;-78
2023/07/01 10:04:55;;;;;;;;;;;23.80;52.10;;;24.17;30.57;98032.41;4971859;28;108772;-78
2023/07/01 10:07:21;;;;;;;;;;;23.80;52.00;;;24.17;30.55;98006.19;4984532;28;108931;-78
2023/07/01 10:09:51;;;;;;;;;;;23.70;51.70;;;24.19;31.03;98013.03;4976482;28;123287;-78
2023/07/01 10:12:18;;;;;;;;;;;23.80;52.20;;;24.25;31.01;98004.88;4989658;28;124272;-77
2023/07/01 10:14:51;;;;;;;;;;;23.80;52.90;;;24.29;30.96;98016.13;4988099;28;109399;-77
2023/07/01 10:17:19;;;;;;;;;;;23.90;52.80;;;24.30;31.37;98001.59;4989676;28;108729;-76
2023/07/01 10:19:48;;;;;;;;;;;23.90;52.90;;;24.35;31.64;98000.31;4987998;28;124191;-77
2023/07/01 10:22:29;;;;;;;;;;;23.90;53.70;;;24.39;31.97;98003.88;4986785;28;124128;-77
2023/07/01 10:25:06;;;;;;;;;;;24.00;53.90;;;24.39;31.71;98010.31;4988276;28;110744;-77
2023/07/01 10:27:42;;;;;;;;;;;24.00;53.80;;;24.38;32.15;98002.28;4987079;28;108999;-78
2023/07/01 10:30:12;;;;;;;;;;;24.00;54.10;;;24.43;31.96;98013.13;4989325;28;123511;-77
2023/07/01 10:32:39;;;;;;;;;;;24.00;53.90;;;24.48;31.66;98000.59;4979614;28;124185;-78
2023/07/01 10:35:05;;;;;;;;;;;24.10;53.70;;;24.54;31.73;98004.53;4973338;28;109280;-77
2023/07/01 10:37:32;;;;;;;;;;;24.10;53.30;;;24.61;31.66;97991.09;4985004;28;108667;-77
2023/07/01 10:40:00;;;;;;;;;;;24.20;53.70;;;24.69;31.55;97989.75;4987147;28;124199;-77
2023/07/01 10:42:33;;;;;;;;;;;24.30;53.50;;;24.75;31.49;97990.06;4981817;28;123968;-76
2023/07/01 10:45:12;;;;;;;;;;;24.30;53.30;;;24.79;31.93;97985.16;4972450;28;108323;-77
2023/07/01 10:47:50;;;;;;;;;;;24.40;53.80;;;24.85;32.09;97986.28;4988523;28;108878;-76
2023/07/01 10:50:17;;;;;;;;;;;24.40;54.00;;;24.96;32.37;97980.47;4986013;28;123172;-77
2023/07/01 10:52:56;;;;;;;;;;;24.50;54.50;;;25.08;31.86;97977.00;4988596;28;123691;-78
2023/07/01 10:55:44;;;;;;;;;;;24.60;54.20;;;25.16;30.78;97971.25;4984038;28;108320;-80
2023/07/01 10:58:23;;;;;;;;;;;24.70;52.80;;;25.25;30.98;97971.50;4985132;28;108897;-79
2023/07/01 11:00:56;;;;;;;;;;;24.80;52.90;;;25.35;30.60;97959.19;4988701;28;124387;-75
2023/07/01 11:06:14;;;;;;;;;;;24.90;51.70;;;25.53;29.89;97950.38;4982435;28;110036;-77
2023/07/01 11:08:50;;;;;;;;;;;25.00;51.30;;;25.57;30.20;97980.16;4991790;28;108057;-75
2023/07/01 11:11:28;;;;;;;;;;;25.10;52.00;;;25.61;30.00;97953.88;4981774;28;124165;-75
2023/07/01 11:13:55;;;;;;;;;;;25.10;51.50;;;25.62;30.26;97942.09;4981884;28;124667;-75
2023/07/01 11:16:21;;;;;;;;;;;25.20;51.80;;;25.66;30.52;97959.81;4989929;28;110456;-75